Terminal Aerodrome Forecast
Issued by NWS Blacksburg, VA

Current Version | Previous Version | Text Only | Print | Product List | Glossary Off
Versions: 1 2 3 4 5 6 7 8 9 10 11 12 13 14 15 16 17 18 19 20 21 22 23 24 25 26 27 28 29 30 31 32 33 34

000
FTUS41 KRNK 221129
TAFBLF
TAF
KBLF 221129Z 2212/2312 00000KT P6SM FEW012 BKN250
      TEMPO 2212/2214 BKN012
     FM221600 14005KT P6SM BKN040
     FM222300 17004KT P6SM SCT045 BKN250
     FM230700 22003KT 4SM BR BKN250=

USA.gov is the U.S. government's official web portal to all federal, state and local government web resources and services.